sensor_id;sensor_type;location;lat;lon;timestamp;P1;durP1;ratioP1;P2;durP2;ratioP2
21046;SDS011;10682;50.874;3.656;2023-12-20T00:02:18;20.87;;;3.00;;
21046;SDS011;10682;50.874;3.656;2023-12-20T00:04:45;19.80;;;3.43;;
21046;SDS011;10682;50.874;3.656;2023-12-20T00:07:13;18.33;;;3.40;;
21046;SDS011;10682;50.874;3.656;2023-12-20T00:09:40;19.97;;;3.43;;
21046;SDS011;10682;50.874;3.656;2023-12-20T00:12:07;21.20;;;3.13;;
21046;SDS011;10682;50.874;3.656;2023-12-20T00:14:34;15.37;;;3.20;;
21046;SDS011;10682;50.874;3.656;2023-12-20T00:17:02;11.20;;;2.80;;
21046;SDS011;10682;50.874;3.656;2023-12-20T00:19:29;15.63;;;3.27;;
21046;SDS011;10682;50.874;3.656;2023-12-20T00:21:56;16.60;;;3.10;;
21046;SDS011;10682;50.874;3.656;2023-12-20T00:24:23;22.10;;;3.57;;
21046;SDS011;10682;50.874;3.656;2023-12-20T00:26:50;17.17;;;3.67;;
21046;SDS011;10682;50.874;3.656;2023-12-20T00:29:17;20.97;;;4.17;;
21046;SDS011;10682;50.874;3.656;2023-12-20T00:31:44;12.70;;;3.30;;
21046;SDS011;10682;50.874;3.656;2023-12-20T00:34:11;21.50;;;3.40;;
21046;SDS011;10682;50.874;3.656;2023-12-20T00:36:38;11.97;;;3.47;;
21046;SDS011;10682;50.874;3.656;2023-12-20T00:39:06;9.23;;;3.27;;
21046;SDS011;10682;50.874;3.656;2023-12-20T00:41:33;16.23;;;3.50;;
21046;SDS011;10682;50.874;3.656;2023-12-20T00:44:00;16.33;;;3.13;;
21046;SDS011;10682;50.874;3.656;2023-12-20T00:46:27;14.43;;;3.50;;
21046;SDS011;10682;50.874;3.656;2023-12-20T00:48:54;21.70;;;4.10;;
21046;SDS011;10682;50.874;3.656;2023-12-20T00:51:21;17.23;;;3.50;;
21046;SDS011;10682;50.874;3.656;2023-12-20T00:53:50;13.70;;;4.20;;
21046;SDS011;10682;50.874;3.656;2023-12-20T00:56:21;13.83;;;3.10;;
21046;SDS011;10682;50.874;3.656;2023-12-20T00:58:48;13.57;;;3.30;;
21046;SDS011;10682;50.874;3.656;2023-12-20T01:01:15;12.00;;;3.57;;
21046;SDS011;10682;50.874;3.656;2023-12-20T01:03:42;16.03;;;3.73;;
21046;SDS011;10682;50.874;3.656;2023-12-20T01:06:09;16.00;;;3.57;;
21046;SDS011;10682;50.874;3.656;2023-12-20T01:08:37;20.47;;;3.77;;
21046;SDS011;10682;50.874;3.656;2023-12-20T01:11:04;18.87;;;3.53;;
21046;SDS011;10682;50.874;3.656;2023-12-20T01:13:32;22.50;;;4.67;;
21046;SDS011;10682;50.874;3.656;2023-12-20T01:15:59;18.27;;;3.90;;
21046;SDS011;10682;50.874;3.656;2023-12-20T01:18:26;26.30;;;3.97;;
21046;SDS011;10682;50.874;3.656;2023-12-20T01:20:54;18.50;;;4.30;;
21046;SDS011;10682;50.874;3.656;2023-12-20T01:23:21;15.90;;;4.13;;
21046;SDS011;10682;50.874;3.656;2023-12-20T01:25:48;18.33;;;4.13;;
21046;SDS011;10682;50.874;3.656;2023-12-20T01:28:15;19.03;;;4.40;;
21046;SDS011;10682;50.874;3.656;2023-12-20T01:30:42;11.43;;;3.83;;
21046;SDS011;10682;50.874;3.656;2023-12-20T01:33:10;16.23;;;4.70;;
21046;SDS011;10682;50.874;3.656;2023-12-20T01:35:37;22.60;;;4.13;;
21046;SDS011;10682;50.874;3.656;2023-12-20T01:38:04;20.43;;;4.67;;
21046;SDS011;10682;50.874;3.656;2023-12-20T01:40:31;17.43;;;4.40;;
21046;SDS011;10682;50.874;3.656;2023-12-20T01:43:01;15.87;;;3.73;;
21046;SDS011;10682;50.874;3.656;2023-12-20T01:45:34;17.33;;;4.17;;
21046;SDS011;10682;50.874;3.656;2023-12-20T01:48:01;16.87;;;3.70;;
21046;SDS011;10682;50.874;3.656;2023-12-20T01:50:31;16.67;;;3.53;;
21046;SDS011;10682;50.874;3.656;2023-12-20T01:52:59;14.47;;;4.00;;
21046;SDS011;10682;50.874;3.656;2023-12-20T01:55:29;16.97;;;4.00;;
21046;SDS011;10682;50.874;3.656;2023-12-20T01:57:59;14.93;;;3.87;;
21046;SDS011;10682;50.874;3.656;2023-12-20T02:00:27;18.20;;;3.37;;
21046;SDS011;10682;50.874;3.656;2023-12-20T02:02:55;16.70;;;3.70;;
21046;SDS011;10682;50.874;3.656;2023-12-20T02:05:23;15.67;;;3.47;;
21046;SDS011;10682;50.874;3.656;2023-12-20T02:07:52;20.67;;;3.27;;
21046;SDS011;10682;50.874;3.656;2023-12-20T02:10:19;18.47;;;3.97;;
21046;SDS011;10682;50.874;3.656;2023-12-20T02:12:46;18.20;;;3.67;;
21046;SDS011;10682;50.874;3.656;2023-12-20T02:15:14;18.70;;;3.57;;
21046;SDS011;10682;50.874;3.656;2023-12-20T02:17:41;16.67;;;3.30;;
21046;SDS011;10682;50.874;3.656;2023-12-20T02:20:09;12.97;;;3.30;;
21046;SDS011;10682;50.874;3.656;2023-12-20T02:22:36;16.87;;;3.73;;
21046;SDS011;10682;50.874;3.656;2023-12-20T02:25:03;14.30;;;3.30;;
21046;SDS011;10682;50.874;3.656;2023-12-20T02:27:31;14.50;;;3.13;;
21046;SDS011;10682;50.874;3.656;2023-12-20T02:29:58;17.10;;;3.60;;
21046;SDS011;10682;50.874;3.656;2023-12-20T02:32:25;12.60;;;3.07;;
21046;SDS011;10682;50.874;3.656;2023-12-20T02:34:52;15.73;;;3.43;;
21046;SDS011;10682;50.874;3.656;2023-12-20T02:37:21;11.47;;;2.63;;
21046;SDS011;10682;50.874;3.656;2023-12-20T02:39:48;12.47;;;3.00;;
21046;SDS011;10682;50.874;3.656;2023-12-20T02:42:15;22.23;;;3.40;;
21046;SDS011;10682;50.874;3.656;2023-12-20T02:44:42;16.67;;;2.83;;
21046;SDS011;10682;50.874;3.656;2023-12-20T02:47:09;18.40;;;3.07;;
21046;SDS011;10682;50.874;3.656;2023-12-20T02:49:36;20.73;;;3.33;;
21046;SDS011;10682;50.874;3.656;2023-12-20T02:52:03;13.50;;;2.97;;
21046;SDS011;10682;50.874;3.656;2023-12-20T02:54:31;12.87;;;3.10;;
21046;SDS011;10682;50.874;3.656;2023-12-20T02:56:58;16.60;;;3.10;;
21046;SDS011;10682;50.874;3.656;2023-12-20T02:59:25;16.77;;;3.80;;
21046;SDS011;10682;50.874;3.656;2023-12-20T03:01:52;15.37;;;3.37;;
21046;SDS011;10682;50.874;3.656;2023-12-20T03:04:19;20.73;;;4.30;;
21046;SDS011;10682;50.874;3.656;2023-12-20T03:06:46;15.97;;;4.10;;
21046;SDS011;10682;50.874;3.656;2023-12-20T03:09:13;13.33;;;3.20;;
21046;SDS011;10682;50.874;3.656;2023-12-20T03:11:40;15.97;;;3.67;;
21046;SDS011;10682;50.874;3.656;2023-12-20T03:14:07;12.10;;;3.33;;
21046;SDS011;10682;50.874;3.656;2023-12-20T03:16:34;22.50;;;3.70;;
21046;SDS011;10682;50.874;3.656;2023-12-20T03:19:02;19.63;;;3.93;;
21046;SDS011;10682;50.874;3.656;2023-12-20T03:21:30;17.27;;;3.73;;
21046;SDS011;10682;50.874;3.656;2023-12-20T03:23:57;15.03;;;2.93;;
21046;SDS011;10682;50.874;3.656;2023-12-20T03:26:24;15.57;;;3.07;;
21046;SDS011;10682;50.874;3.656;2023-12-20T03:28:51;12.97;;;3.20;;
21046;SDS011;10682;50.874;3.656;2023-12-20T03:31:18;19.13;;;3.27;;
21046;SDS011;10682;50.874;3.656;2023-12-20T03:33:46;14.13;;;3.10;;
21046;SDS011;10682;50.874;3.656;2023-12-20T03:36:13;15.10;;;3.10;;
21046;SDS011;10682;50.874;3.656;2023-12-20T03:38:40;19.37;;;3.20;;
21046;SDS011;10682;50.874;3.656;2023-12-20T03:41:07;14.87;;;3.10;;
21046;SDS011;10682;50.874;3.656;2023-12-20T03:43:34;23.80;;;3.10;;
21046;SDS011;10682;50.874;3.656;2023-12-20T03:46:02;13.60;;;3.03;;
21046;SDS011;10682;50.874;3.656;2023-12-20T03:48:30;19.67;;;3.00;;
21046;SDS011;10682;50.874;3.656;2023-12-20T03:50:58;16.97;;;3.10;;
21046;SDS011;10682;50.874;3.656;2023-12-20T03:53:25;15.73;;;3.03;;
21046;SDS011;10682;50.874;3.656;2023-12-20T03:55:52;16.80;;;3.23;;
21046;SDS011;10682;50.874;3.656;2023-12-20T03:58:19;24.80;;;3.50;;
21046;SDS011;10682;50.874;3.656;2023-12-20T04:00:46;16.70;;;2.63;;
21046;SDS011;10682;50.874;3.656;2023-12-20T04:03:13;17.33;;;3.90;;
21046;SDS011;10682;50.874;3.656;2023-12-20T04:05:41;13.40;;;3.03;;
21046;SDS011;10682;50.874;3.656;2023-12-20T04:08:08;13.43;;;3.30;;
21046;SDS011;10682;50.874;3.656;2023-12-20T04:10:36;14.57;;;3.07;;
21046;SDS011;10682;50.874;3.656;2023-12-20T04:13:04;18.03;;;3.80;;
21046;SDS011;10682;50.874;3.656;2023-12-20T04:15:31;19.67;;;4.00;;
21046;SDS011;10682;50.874;3.656;2023-12-20T04:17:58;16.37;;;3.40;;
21046;SDS011;10682;50.874;3.656;2023-12-20T04:20:25;17.67;;;3.37;;
21046;SDS011;10682;50.874;3.656;2023-12-20T04:22:52;18.37;;;3.00;;
21046;SDS011;10682;50.874;3.656;2023-12-20T04:25:19;14.13;;;3.10;;
21046;SDS011;10682;50.874;3.656;2023-12-20T04:27:47;15.67;;;3.40;;
21046;SDS011;10682;50.874;3.656;2023-12-20T04:30:14;12.40;;;2.80;;
21046;SDS011;10682;50.874;3.656;2023-12-20T04:32:42;17.40;;;3.10;;
21046;SDS011;10682;50.874;3.656;2023-12-20T04:35:09;16.90;;;2.87;;
21046;SDS011;10682;50.874;3.656;2023-12-20T04:37:36;14.63;;;2.50;;
21046;SDS011;10682;50.874;3.656;2023-12-20T04:40:03;16.97;;;2.93;;
21046;SDS011;10682;50.874;3.656;2023-12-20T04:42:32;15.37;;;2.90;;
21046;SDS011;10682;50.874;3.656;2023-12-20T04:44:59;14.97;;;2.83;;
21046;SDS011;10682;50.874;3.656;2023-12-20T04:47:26;15.03;;;3.23;;
21046;SDS011;10682;50.874;3.656;2023-12-20T04:49:53;19.00;;;3.07;;
21046;SDS011;10682;50.874;3.656;2023-12-20T04:52:20;23.37;;;3.47;;
21046;SDS011;10682;50.874;3.656;2023-12-20T04:54:48;17.63;;;3.27;;
21046;SDS011;10682;50.874;3.656;2023-12-20T04:57:15;19.73;;;3.23;;
21046;SDS011;10682;50.874;3.656;2023-12-20T04:59:42;16.40;;;3.63;;
21046;SDS011;10682;50.874;3.656;2023-12-20T05:02:09;17.73;;;3.47;;
21046;SDS011;10682;50.874;3.656;2023-12-20T05:04:36;22.37;;;3.30;;
21046;SDS011;10682;50.874;3.656;2023-12-20T05:07:03;13.23;;;2.83;;
21046;SDS011;10682;50.874;3.656;2023-12-20T05:09:32;16.57;;;3.37;;
21046;SDS011;10682;50.874;3.656;2023-12-20T05:11:59;14.53;;;2.80;;
21046;SDS011;10682;50.874;3.656;2023-12-20T05:14:26;13.97;;;2.20;;
21046;SDS011;10682;50.874;3.656;2023-12-20T05:16:53;15.30;;;2.77;;
21046;SDS011;10682;50.874;3.656;2023-12-20T05:19:21;21.67;;;3.80;;
21046;SDS011;10682;50.874;3.656;2023-12-20T05:21:48;19.07;;;2.37;;
21046;SDS011;10682;50.874;3.656;2023-12-20T05:24:15;15.00;;;3.27;;
21046;SDS011;10682;50.874;3.656;2023-12-20T05:26:42;13.53;;;2.47;;
21046;SDS011;10682;50.874;3.656;2023-12-20T05:29:10;13.93;;;2.80;;
21046;SDS011;10682;50.874;3.656;2023-12-20T05:31:37;10.27;;;2.57;;
21046;SDS011;10682;50.874;3.656;2023-12-20T05:34:04;15.60;;;3.30;;
21046;SDS011;10682;50.874;3.656;2023-12-20T05:36:31;13.83;;;3.10;;
21046;SDS011;10682;50.874;3.656;2023-12-20T05:38:58;15.30;;;3.07;;
21046;SDS011;10682;50.874;3.656;2023-12-20T05:41:25;12.47;;;2.17;;
21046;SDS011;10682;50.874;3.656;2023-12-20T05:43:53;10.47;;;2.57;;
21046;SDS011;10682;50.874;3.656;2023-12-20T05:46:19;19.47;;;2.90;;
21046;SDS011;10682;50.874;3.656;2023-12-20T05:48:48;16.00;;;2.80;;
21046;SDS011;10682;50.874;3.656;2023-12-20T05:51:15;14.97;;;3.27;;
21046;SDS011;10682;50.874;3.656;2023-12-20T05:53:42;20.40;;;3.40;;
21046;SDS011;10682;50.874;3.656;2023-12-20T05:56:10;13.43;;;2.33;;
21046;SDS011;10682;50.874;3.656;2023-12-20T05:58:38;12.63;;;3.00;;
21046;SDS011;10682;50.874;3.656;2023-12-20T06:01:06;16.83;;;3.37;;
21046;SDS011;10682;50.874;3.656;2023-12-20T06:03:35;17.77;;;3.30;;
21046;SDS011;10682;50.874;3.656;2023-12-20T06:06:08;18.70;;;3.23;;
21046;SDS011;10682;50.874;3.656;2023-12-20T06:08:42;12.53;;;2.30;;
21046;SDS011;10682;50.874;3.656;2023-12-20T06:11:10;15.70;;;2.13;;
21046;SDS011;10682;50.874;3.656;2023-12-20T06:13:37;17.50;;;2.60;;
21046;SDS011;10682;50.874;3.656;2023-12-20T06:16:05;15.33;;;2.80;;
21046;SDS011;10682;50.874;3.656;2023-12-20T06:18:36;18.33;;;2.93;;
21046;SDS011;10682;50.874;3.656;2023-12-20T06:21:03;17.53;;;2.63;;
21046;SDS011;10682;50.874;3.656;2023-12-20T06:23:31;17.10;;;2.80;;
21046;SDS011;10682;50.874;3.656;2023-12-20T06:25:58;17.60;;;2.90;;
21046;SDS011;10682;50.874;3.656;2023-12-20T06:28:25;15.30;;;2.87;;
21046;SDS011;10682;50.874;3.656;2023-12-20T06:30:52;16.80;;;2.53;;
21046;SDS011;10682;50.874;3.656;2023-12-20T06:33:21;13.43;;;2.60;;
21046;SDS011;10682;50.874;3.656;2023-12-20T06:35:49;20.27;;;2.93;;
21046;SDS011;10682;50.874;3.656;2023-12-20T06:38:17;17.03;;;2.90;;
21046;SDS011;10682;50.874;3.656;2023-12-20T06:40:45;17.70;;;2.77;;
21046;SDS011;10682;50.874;3.656;2023-12-20T06:43:12;20.07;;;2.77;;
21046;SDS011;10682;50.874;3.656;2023-12-20T06:45:57;16.73;;;2.97;;
21046;SDS011;10682;50.874;3.656;2023-12-20T06:48:25;19.43;;;2.93;;
21046;SDS011;10682;50.874;3.656;2023-12-20T06:50:52;17.80;;;2.93;;
21046;SDS011;10682;50.874;3.656;2023-12-20T06:53:19;16.23;;;3.27;;
21046;SDS011;10682;50.874;3.656;2023-12-20T06:55:46;14.23;;;2.90;;
21046;SDS011;10682;50.874;3.656;2023-12-20T06:58:13;13.17;;;2.97;;
21046;SDS011;10682;50.874;3.656;2023-12-20T07:00:40;14.83;;;2.97;;
21046;SDS011;10682;50.874;3.656;2023-12-20T07:03:08;18.17;;;3.00;;
21046;SDS011;10682;50.874;3.656;2023-12-20T07:05:36;12.00;;;2.87;;
21046;SDS011;10682;50.874;3.656;2023-12-20T07:08:03;13.87;;;3.00;;
21046;SDS011;10682;50.874;3.656;2023-12-20T07:10:31;28.67;;;3.23;;
21046;SDS011;10682;50.874;3.656;2023-12-20T07:12:58;19.70;;;3.80;;
21046;SDS011;10682;50.874;3.656;2023-12-20T07:15:25;20.80;;;3.30;;
21046;SDS011;10682;50.874;3.656;2023-12-20T07:17:53;18.93;;;3.00;;
21046;SDS011;10682;50.874;3.656;2023-12-20T07:20:20;17.60;;;4.10;;
21046;SDS011;10682;50.874;3.656;2023-12-20T07:22:47;16.43;;;2.70;;
21046;SDS011;10682;50.874;3.656;2023-12-20T07:25:14;16.50;;;3.27;;
21046;SDS011;10682;50.874;3.656;2023-12-20T07:27:41;14.30;;;2.30;;
21046;SDS011;10682;50.874;3.656;2023-12-20T07:30:11;14.47;;;2.90;;
21046;SDS011;10682;50.874;3.656;2023-12-20T07:32:38;15.23;;;3.13;;
21046;SDS011;10682;50.874;3.656;2023-12-20T07:35:06;19.90;;;2.80;;
21046;SDS011;10682;50.874;3.656;2023-12-20T07:37:33;16.17;;;2.90;;
21046;SDS011;10682;50.874;3.656;2023-12-20T07:40:01;18.73;;;3.10;;
21046;SDS011;10682;50.874;3.656;2023-12-20T07:42:30;13.30;;;3.10;;
21046;SDS011;10682;50.874;3.656;2023-12-20T07:44:58;15.37;;;3.07;;
21046;SDS011;10682;50.874;3.656;2023-12-20T07:47:25;13.63;;;2.53;;
21046;SDS011;10682;50.874;3.656;2023-12-20T07:49:52;18.97;;;2.83;;
21046;SDS011;10682;50.874;3.656;2023-12-20T07:52:19;19.10;;;2.80;;
21046;SDS011;10682;50.874;3.656;2023-12-20T07:54:49;20.03;;;2.53;;
21046;SDS011;10682;50.874;3.656;2023-12-20T07:57:16;15.07;;;2.40;;
21046;SDS011;10682;50.874;3.656;2023-12-20T07:59:43;22.30;;;3.43;;
21046;SDS011;10682;50.874;3.656;2023-12-20T08:02:10;17.63;;;2.97;;
21046;SDS011;10682;50.874;3.656;2023-12-20T08:04:37;19.90;;;3.47;;
21046;SDS011;10682;50.874;3.656;2023-12-20T08:07:05;18.33;;;3.37;;
21046;SDS011;10682;50.874;3.656;2023-12-20T08:09:32;17.07;;;3.97;;
21046;SDS011;10682;50.874;3.656;2023-12-20T08:12:00;14.40;;;3.77;;
21046;SDS011;10682;50.874;3.656;2023-12-20T08:14:27;16.40;;;2.53;;
21046;SDS011;10682;50.874;3.656;2023-12-20T08:16:54;20.53;;;2.87;;
21046;SDS011;10682;50.874;3.656;2023-12-20T08:19:21;18.23;;;2.80;;
21046;SDS011;10682;50.874;3.656;2023-12-20T08:21:48;14.23;;;2.77;;
21046;SDS011;10682;50.874;3.656;2023-12-20T08:24:15;18.37;;;2.87;;
21046;SDS011;10682;50.874;3.656;2023-12-20T08:26:42;18.80;;;3.00;;
21046;SDS011;10682;50.874;3.656;2023-12-20T08:29:09;13.70;;;2.43;;
21046;SDS011;10682;50.874;3.656;2023-12-20T08:31:40;17.87;;;2.87;;
21046;SDS011;10682;50.874;3.656;2023-12-20T08:34:07;12.70;;;2.80;;
21046;SDS011;10682;50.874;3.656;2023-12-20T08:36:34;17.60;;;2.67;;
21046;SDS011;10682;50.874;3.656;2023-12-20T08:39:02;18.30;;;3.60;;
21046;SDS011;10682;50.874;3.656;2023-12-20T08:41:32;13.77;;;2.43;;
21046;SDS011;10682;50.874;3.656;2023-12-20T08:43:59;17.27;;;3.00;;
21046;SDS011;10682;50.874;3.656;2023-12-20T08:46:26;12.77;;;2.90;;
21046;SDS011;10682;50.874;3.656;2023-12-20T08:48:54;13.77;;;2.97;;
21046;SDS011;10682;50.874;3.656;2023-12-20T08:51:21;18.73;;;2.90;;
21046;SDS011;10682;50.874;3.656;2023-12-20T08:53:50;19.17;;;3.03;;
21046;SDS011;10682;50.874;3.656;2023-12-20T08:56:18;15.53;;;2.97;;
21046;SDS011;10682;50.874;3.656;2023-12-20T08:58:45;16.63;;;3.10;;
21046;SDS011;10682;50.874;3.656;2023-12-20T09:01:13;15.17;;;3.20;;
21046;SDS011;10682;50.874;3.656;2023-12-20T09:03:43;21.50;;;3.03;;
21046;SDS011;10682;50.874;3.656;2023-12-20T09:06:10;18.33;;;3.40;;
21046;SDS011;10682;50.874;3.656;2023-12-20T09:08:37;17.83;;;3.23;;
21046;SDS011;10682;50.874;3.656;2023-12-20T09:11:04;15.37;;;3.03;;
21046;SDS011;10682;50.874;3.656;2023-12-20T09:13:32;13.57;;;2.63;;
21046;SDS011;10682;50.874;3.656;2023-12-20T09:15:59;12.70;;;2.77;;
21046;SDS011;10682;50.874;3.656;2023-12-20T09:18:26;16.20;;;3.53;;
21046;SDS011;10682;50.874;3.656;2023-12-20T09:20:54;20.50;;;3.10;;
21046;SDS011;10682;50.874;3.656;2023-12-20T09:23:21;12.67;;;2.73;;
21046;SDS011;10682;50.874;3.656;2023-12-20T09:25:48;15.67;;;2.80;;
21046;SDS011;10682;50.874;3.656;2023-12-20T09:28:15;14.63;;;2.87;;
21046;SDS011;10682;50.874;3.656;2023-12-20T09:30:42;17.40;;;2.43;;
21046;SDS011;10682;50.874;3.656;2023-12-20T09:33:12;16.17;;;3.87;;
21046;SDS011;10682;50.874;3.656;2023-12-20T09:35:39;17.47;;;3.00;;
21046;SDS011;10682;50.874;3.656;2023-12-20T09:38:06;12.47;;;2.90;;
21046;SDS011;10682;50.874;3.656;2023-12-20T09:40:33;13.20;;;2.90;;
21046;SDS011;10682;50.874;3.656;2023-12-20T09:43:10;16.60;;;2.77;;
21046;SDS011;10682;50.874;3.656;2023-12-20T09:45:41;18.17;;;2.90;;
21046;SDS011;10682;50.874;3.656;2023-12-20T09:48:13;14.70;;;2.97;;
21046;SDS011;10682;50.874;3.656;2023-12-20T09:50:45;19.50;;;3.77;;
21046;SDS011;10682;50.874;3.656;2023-12-20T09:53:19;17.07;;;2.60;;
21046;SDS011;10682;50.874;3.656;2023-12-20T09:55:49;23.27;;;3.50;;
21046;SDS011;10682;50.874;3.656;2023-12-20T09:58:17;19.33;;;2.87;;
21046;SDS011;10682;50.874;3.656;2023-12-20T10:00:44;15.37;;;2.40;;
21046;SDS011;10682;50.874;3.656;2023-12-20T10:03:13;15.83;;;3.10;;
21046;SDS011;10682;50.874;3.656;2023-12-20T10:05:42;20.30;;;2.60;;
21046;SDS011;10682;50.874;3.656;2023-12-20T10:08:11;16.27;;;2.73;;
21046;SDS011;10682;50.874;3.656;2023-12-20T10:10:38;19.93;;;2.80;;
21046;SDS011;10682;50.874;3.656;2023-12-20T10:13:13;16.97;;;2.47;;
21046;SDS011;10682;50.874;3.656;2023-12-20T10:15:42;16.83;;;3.20;;
21046;SDS011;10682;50.874;3.656;2023-12-20T10:18:11;16.10;;;3.07;;
21046;SDS011;10682;50.874;3.656;2023-12-20T10:20:39;14.97;;;2.33;;
21046;SDS011;10682;50.874;3.656;2023-12-20T10:23:08;23.10;;;3.10;;
21046;SDS011;10682;50.874;3.656;2023-12-20T10:25:35;14.13;;;3.00;;
21046;SDS011;10682;50.874;3.656;2023-12-20T10:28:15;17.47;;;2.77;;
21046;SDS011;10682;50.874;3.656;2023-12-20T10:30:50;15.57;;;2.77;;
21046;SDS011;10682;50.874;3.656;2023-12-20T10:33:27;13.30;;;2.93;;
21046;SDS011;10682;50.874;3.656;2023-12-20T10:35:59;15.00;;;2.97;;
21046;SDS011;10682;50.874;3.656;2023-12-20T10:38:26;10.43;;;2.40;;
21046;SDS011;10682;50.874;3.656;2023-12-20T10:40:57;16.43;;;2.70;;
21046;SDS011;10682;50.874;3.656;2023-12-20T10:43:28;16.17;;;2.63;;
21046;SDS011;10682;50.874;3.656;2023-12-20T10:45:57;12.60;;;2.70;;
21046;SDS011;10682;50.874;3.656;2023-12-20T10:48:25;20.60;;;2.87;;
21046;SDS011;10682;50.874;3.656;2023-12-20T10:50:57;20.37;;;2.90;;
21046;SDS011;10682;50.874;3.656;2023-12-20T10:53:24;12.57;;;2.47;;
21046;SDS011;10682;50.874;3.656;2023-12-20T10:55:52;21.33;;;3.47;;
21046;SDS011;10682;50.874;3.656;2023-12-20T10:58:25;12.43;;;2.40;;
21046;SDS011;10682;50.874;3.656;2023-12-20T11:00:59;12.93;;;2.60;;
21046;SDS011;10682;50.874;3.656;2023-12-20T11:03:32;15.60;;;3.40;;
21046;SDS011;10682;50.874;3.656;2023-12-20T11:14:20;22.13;;;2.83;;
21046;SDS011;10682;50.874;3.656;2023-12-20T11:17:08;15.50;;;2.50;;
21046;SDS011;10682;50.874;3.656;2023-12-20T11:19:43;10.67;;;2.07;;
21046;SDS011;10682;50.874;3.656;2023-12-20T11:22:26;15.77;;;3.33;;
21046;SDS011;10682;50.874;3.656;2023-12-20T11:25:10;12.23;;;2.80;;
21046;SDS011;10682;50.874;3.656;2023-12-20T11:27:41;15.57;;;2.57;;
21046;SDS011;10682;50.874;3.656;2023-12-20T11:30:11;15.97;;;2.67;;
21046;SDS011;10682;50.874;3.656;2023-12-20T11:32:40;15.03;;;2.47;;
21046;SDS011;10682;50.874;3.656;2023-12-20T11:37:38;13.40;;;2.37;;
21046;SDS011;10682;50.874;3.656;2023-12-20T11:40:12;21.10;;;3.10;;
21046;SDS011;10682;50.874;3.656;2023-12-20T11:42:44;24.67;;;3.43;;
21046;SDS011;10682;50.874;3.656;2023-12-20T11:45:16;14.57;;;2.40;;
21046;SDS011;10682;50.874;3.656;2023-12-20T11:47:50;14.27;;;2.30;;
21046;SDS011;10682;50.874;3.656;2023-12-20T11:50:18;14.87;;;2.73;;
21046;SDS011;10682;50.874;3.656;2023-12-20T11:52:47;16.80;;;2.60;;
21046;SDS011;10682;50.874;3.656;2023-12-20T11:55:14;12.50;;;2.57;;
21046;SDS011;10682;50.874;3.656;2023-12-20T11:57:42;23.87;;;2.80;;
21046;SDS011;10682;50.874;3.656;2023-12-20T12:00:12;18.33;;;2.70;;
21046;SDS011;10682;50.874;3.656;2023-12-20T12:02:41;14.97;;;2.33;;
21046;SDS011;10682;50.874;3.656;2023-12-20T12:05:09;21.33;;;2.70;;
21046;SDS011;10682;50.874;3.656;2023-12-20T12:07:37;12.50;;;2.57;;
21046;SDS011;10682;50.874;3.656;2023-12-20T12:10:04;16.77;;;2.90;;
21046;SDS011;10682;50.874;3.656;2023-12-20T12:12:32;12.10;;;3.00;;
21046;SDS011;10682;50.874;3.656;2023-12-20T12:14:59;14.50;;;2.53;;
21046;SDS011;10682;50.874;3.656;2023-12-20T12:17:26;8.37;;;2.30;;
21046;SDS011;10682;50.874;3.656;2023-12-20T12:20:01;13.83;;;2.77;;
21046;SDS011;10682;50.874;3.656;2023-12-20T12:22:32;17.77;;;2.63;;
21046;SDS011;10682;50.874;3.656;2023-12-20T12:25:09;12.93;;;2.63;;
21046;SDS011;10682;50.874;3.656;2023-12-20T12:27:41;14.33;;;2.60;;
21046;SDS011;10682;50.874;3.656;2023-12-20T12:30:09;13.93;;;2.70;;
21046;SDS011;10682;50.874;3.656;2023-12-20T12:32:39;15.67;;;3.40;;
21046;SDS011;10682;50.874;3.656;2023-12-20T12:35:07;19.20;;;2.63;;
21046;SDS011;10682;50.874;3.656;2023-12-20T12:37:36;16.27;;;2.77;;
21046;SDS011;10682;50.874;3.656;2023-12-20T12:40:07;17.60;;;2.93;;
21046;SDS011;10682;50.874;3.656;2023-12-20T12:42:42;13.13;;;2.50;;
21046;SDS011;10682;50.874;3.656;2023-12-20T12:45:11;15.70;;;2.20;;
21046;SDS011;10682;50.874;3.656;2023-12-20T12:47:39;15.40;;;2.73;;
21046;SDS011;10682;50.874;3.656;2023-12-20T12:50:06;12.53;;;2.53;;
21046;SDS011;10682;50.874;3.656;2023-12-20T12:52:34;16.67;;;2.40;;
21046;SDS011;10682;50.874;3.656;2023-12-20T12:55:02;15.83;;;2.97;;
21046;SDS011;10682;50.874;3.656;2023-12-20T12:57:31;15.83;;;2.97;;
21046;SDS011;10682;50.874;3.656;2023-12-20T13:00:00;18.67;;;2.53;;
21046;SDS011;10682;50.874;3.656;2023-12-20T13:02:29;11.77;;;2.47;;
21046;SDS011;10682;50.874;3.656;2023-12-20T13:04:57;13.37;;;2.20;;
21046;SDS011;10682;50.874;3.656;2023-12-20T13:07:24;16.33;;;2.57;;
21046;SDS011;10682;50.874;3.656;2023-12-20T13:09:51;13.70;;;2.70;;
21046;SDS011;10682;50.874;3.656;2023-12-20T13:12:18;13.00;;;2.63;;
21046;SDS011;10682;50.874;3.656;2023-12-20T13:14:46;11.87;;;2.00;;
21046;SDS011;10682;50.874;3.656;2023-12-20T13:17:13;17.30;;;2.80;;
21046;SDS011;10682;50.874;3.656;2023-12-20T13:19:41;13.73;;;2.43;;
21046;SDS011;10682;50.874;3.656;2023-12-20T13:22:09;13.53;;;2.20;;
21046;SDS011;10682;50.874;3.656;2023-12-20T13:24:36;13.73;;;2.47;;
21046;SDS011;10682;50.874;3.656;2023-12-20T13:27:03;19.10;;;2.57;;
21046;SDS011;10682;50.874;3.656;2023-12-20T13:29:30;16.17;;;2.03;;
21046;SDS011;10682;50.874;3.656;2023-12-20T13:31:57;17.23;;;2.37;;
21046;SDS011;10682;50.874;3.656;2023-12-20T13:34:25;16.90;;;2.33;;
21046;SDS011;10682;50.874;3.656;2023-12-20T13:36:52;12.97;;;2.23;;
21046;SDS011;10682;50.874;3.656;2023-12-20T13:39:19;8.50;;;2.40;;
21046;SDS011;10682;50.874;3.656;2023-12-20T13:41:47;21.77;;;2.83;;
21046;SDS011;10682;50.874;3.656;2023-12-20T13:44:15;10.47;;;1.90;;
21046;SDS011;10682;50.874;3.656;2023-12-20T13:46:42;11.87;;;2.13;;
21046;SDS011;10682;50.874;3.656;2023-12-20T13:49:09;13.70;;;2.57;;
21046;SDS011;10682;50.874;3.656;2023-12-20T13:51:36;14.33;;;2.47;;
21046;SDS011;10682;50.874;3.656;2023-12-20T13:54:04;11.23;;;2.00;;
21046;SDS011;10682;50.874;3.656;2023-12-20T13:56:31;11.87;;;2.10;;
21046;SDS011;10682;50.874;3.656;2023-12-20T13:59:12;12.90;;;1.80;;
21046;SDS011;10682;50.874;3.656;2023-12-20T14:01:40;11.73;;;3.10;;
21046;SDS011;10682;50.874;3.656;2023-12-20T14:04:07;21.67;;;2.40;;
21046;SDS011;10682;50.874;3.656;2023-12-20T14:06:34;19.67;;;1.73;;
21046;SDS011;10682;50.874;3.656;2023-12-20T14:09:01;16.37;;;2.57;;
21046;SDS011;10682;50.874;3.656;2023-12-20T14:11:32;12.13;;;1.80;;
21046;SDS011;10682;50.874;3.656;2023-12-20T14:13:59;15.00;;;2.23;;
21046;SDS011;10682;50.874;3.656;2023-12-20T14:16:28;12.33;;;2.07;;
21046;SDS011;10682;50.874;3.656;2023-12-20T14:18:55;11.93;;;2.57;;
21046;SDS011;10682;50.874;3.656;2023-12-20T14:21:24;13.47;;;2.30;;
21046;SDS011;10682;50.874;3.656;2023-12-20T14:23:51;16.77;;;2.37;;
21046;SDS011;10682;50.874;3.656;2023-12-20T14:26:18;15.07;;;2.60;;
21046;SDS011;10682;50.874;3.656;2023-12-20T14:28:45;11.63;;;2.60;;
21046;SDS011;10682;50.874;3.656;2023-12-20T14:31:12;12.30;;;2.20;;
21046;SDS011;10682;50.874;3.656;2023-12-20T14:33:40;10.63;;;1.90;;
21046;SDS011;10682;50.874;3.656;2023-12-20T14:36:08;15.57;;;2.20;;
21046;SDS011;10682;50.874;3.656;2023-12-20T14:38:35;8.73;;;1.90;;
21046;SDS011;10682;50.874;3.656;2023-12-20T14:41:02;12.87;;;1.83;;
21046;SDS011;10682;50.874;3.656;2023-12-20T14:43:32;16.47;;;2.30;;
21046;SDS011;10682;50.874;3.656;2023-12-20T14:45:59;18.30;;;2.93;;
21046;SDS011;10682;50.874;3.656;2023-12-20T14:48:26;13.30;;;2.33;;
21046;SDS011;10682;50.874;3.656;2023-12-20T14:50:54;13.33;;;2.23;;
21046;SDS011;10682;50.874;3.656;2023-12-20T14:53:21;11.50;;;2.50;;